sensor_id;sensor_type;location;lat;lon;timestamp;P1;durP1;ratioP1;P2;durP2;ratioP2
43706;SDS011;61348;53.392;-6.248;2022-09-02T00:01:36;6.13;;;1.42;;
43706;SDS011;61348;53.392;-6.248;2022-09-02T00:04:12;5.55;;;1.75;;
43706;SDS011;61348;53.392;-6.248;2022-09-02T00:06:41;3.53;;;1.52;;
43706;SDS011;61348;53.392;-6.248;2022-09-02T00:09:10;2.67;;;1.48;;
43706;SDS011;61348;53.392;-6.248;2022-09-02T00:11:39;4.20;;;1.50;;
43706;SDS011;61348;53.392;-6.248;2022-09-02T00:14:08;4.85;;;1.55;;
43706;SDS011;61348;53.392;-6.248;2022-09-02T00:16:38;5.40;;;1.95;;
43706;SDS011;61348;53.392;-6.248;2022-09-02T00:19:07;6.82;;;1.58;;
43706;SDS011;61348;53.392;-6.248;2022-09-02T00:21:34;4.78;;;1.50;;
43706;SDS011;61348;53.392;-6.248;2022-09-02T00:24:02;5.13;;;1.60;;
43706;SDS011;61348;53.392;-6.248;2022-09-02T00:26:30;5.07;;;1.83;;
43706;SDS011;61348;53.392;-6.248;2022-09-02T00:28:57;3.00;;;2.08;;
43706;SDS011;61348;53.392;-6.248;2022-09-02T00:31:25;2.42;;;1.38;;
43706;SDS011;61348;53.392;-6.248;2022-09-02T00:33:54;4.57;;;1.40;;
43706;SDS011;61348;53.392;-6.248;2022-09-02T00:36:21;1.75;;;1.20;;
43706;SDS011;61348;53.392;-6.248;2022-09-02T00:38:48;5.65;;;1.70;;
43706;SDS011;61348;53.392;-6.248;2022-09-02T00:41:17;2.33;;;1.40;;
43706;SDS011;61348;53.392;-6.248;2022-09-02T00:44:08;3.10;;;1.35;;
43706;SDS011;61348;53.392;-6.248;2022-09-02T00:46:57;3.30;;;1.67;;
43706;SDS011;61348;53.392;-6.248;2022-09-02T00:49:48;4.60;;;1.63;;
43706;SDS011;61348;53.392;-6.248;2022-09-02T00:52:40;4.78;;;1.30;;
43706;SDS011;61348;53.392;-6.248;2022-09-02T00:55:33;5.43;;;1.77;;
43706;SDS011;61348;53.392;-6.248;2022-09-02T00:58:29;6.50;;;2.38;;
43706;SDS011;61348;53.392;-6.248;2022-09-02T01:05:32;4.53;;;1.23;;
43706;SDS011;61348;53.392;-6.248;2022-09-02T01:08:28;3.72;;;1.42;;
43706;SDS011;61348;53.392;-6.248;2022-09-02T01:11:19;6.78;;;1.40;;
43706;SDS011;61348;53.392;-6.248;2022-09-02T01:18:19;4.10;;;1.48;;
43706;SDS011;61348;53.392;-6.248;2022-09-02T01:21:10;6.47;;;2.53;;
43706;SDS011;61348;53.392;-6.248;2022-09-02T01:23:57;5.38;;;2.03;;
43706;SDS011;61348;53.392;-6.248;2022-09-02T01:26:45;6.30;;;2.80;;
43706;SDS011;61348;53.392;-6.248;2022-09-02T01:29:33;6.00;;;2.35;;
43706;SDS011;61348;53.392;-6.248;2022-09-02T01:32:21;9.82;;;1.63;;
43706;SDS011;61348;53.392;-6.248;2022-09-02T01:35:08;2.70;;;1.52;;
43706;SDS011;61348;53.392;-6.248;2022-09-02T01:37:57;11.95;;;1.95;;
43706;SDS011;61348;53.392;-6.248;2022-09-02T01:40:45;5.00;;;1.80;;
43706;SDS011;61348;53.392;-6.248;2022-09-02T01:43:32;5.45;;;1.67;;
43706;SDS011;61348;53.392;-6.248;2022-09-02T01:46:20;4.55;;;1.73;;
43706;SDS011;61348;53.392;-6.248;2022-09-02T01:49:09;5.63;;;1.70;;
43706;SDS011;61348;53.392;-6.248;2022-09-02T01:51:56;4.63;;;1.50;;
43706;SDS011;61348;53.392;-6.248;2022-09-02T01:54:43;3.47;;;1.35;;
43706;SDS011;61348;53.392;-6.248;2022-09-02T01:57:30;6.88;;;1.52;;
43706;SDS011;61348;53.392;-6.248;2022-09-02T02:00:17;6.00;;;1.90;;
43706;SDS011;61348;53.392;-6.248;2022-09-02T02:03:05;4.57;;;1.80;;
43706;SDS011;61348;53.392;-6.248;2022-09-02T02:05:52;5.80;;;1.42;;
43706;SDS011;61348;53.392;-6.248;2022-09-02T02:08:39;5.90;;;1.92;;
43706;SDS011;61348;53.392;-6.248;2022-09-02T02:11:27;6.53;;;1.70;;
43706;SDS011;61348;53.392;-6.248;2022-09-02T02:14:15;5.30;;;2.60;;
43706;SDS011;61348;53.392;-6.248;2022-09-02T02:17:03;5.18;;;2.10;;
43706;SDS011;61348;53.392;-6.248;2022-09-02T02:19:50;4.03;;;1.45;;
43706;SDS011;61348;53.392;-6.248;2022-09-02T02:22:37;9.02;;;3.25;;
43706;SDS011;61348;53.392;-6.248;2022-09-02T02:25:25;5.80;;;2.17;;
43706;SDS011;61348;53.392;-6.248;2022-09-02T02:28:12;7.47;;;2.20;;
43706;SDS011;61348;53.392;-6.248;2022-09-02T02:31:00;4.50;;;1.88;;
43706;SDS011;61348;53.392;-6.248;2022-09-02T02:33:47;2.35;;;1.88;;
43706;SDS011;61348;53.392;-6.248;2022-09-02T02:36:35;3.80;;;1.70;;
43706;SDS011;61348;53.392;-6.248;2022-09-02T02:39:22;7.35;;;2.10;;
43706;SDS011;61348;53.392;-6.248;2022-09-02T02:42:09;3.88;;;1.92;;
43706;SDS011;61348;53.392;-6.248;2022-09-02T02:44:59;4.90;;;2.45;;
43706;SDS011;61348;53.392;-6.248;2022-09-02T02:47:46;6.85;;;2.45;;
43706;SDS011;61348;53.392;-6.248;2022-09-02T02:50:33;6.28;;;2.38;;
43706;SDS011;61348;53.392;-6.248;2022-09-02T02:53:20;8.40;;;3.97;;
43706;SDS011;61348;53.392;-6.248;2022-09-02T02:56:07;6.10;;;1.90;;
43706;SDS011;61348;53.392;-6.248;2022-09-02T02:58:55;7.00;;;1.77;;
43706;SDS011;61348;53.392;-6.248;2022-09-02T06:42:19;8.00;;;3.88;;
43706;SDS011;61348;53.392;-6.248;2022-09-02T07:03:47;8.25;;;4.22;;
43706;SDS011;61348;53.392;-6.248;2022-09-02T07:06:46;7.30;;;4.40;;
43706;SDS011;61348;53.392;-6.248;2022-09-02T07:09:21;6.85;;;4.07;;
43706;SDS011;61348;53.392;-6.248;2022-09-02T07:11:57;5.75;;;3.65;;
43706;SDS011;61348;53.392;-6.248;2022-09-02T07:22:11;9.25;;;4.68;;
43706;SDS011;61348;53.392;-6.248;2022-09-02T07:24:43;9.65;;;3.95;;
43706;SDS011;61348;53.392;-6.248;2022-09-02T07:27:10;9.13;;;4.68;;
43706;SDS011;61348;53.392;-6.248;2022-09-02T07:29:37;12.52;;;5.82;;
43706;SDS011;61348;53.392;-6.248;2022-09-02T07:32:04;10.00;;;4.18;;
43706;SDS011;61348;53.392;-6.248;2022-09-02T07:34:31;14.30;;;4.35;;
43706;SDS011;61348;53.392;-6.248;2022-09-02T07:40:53;10.52;;;4.78;;
43706;SDS011;61348;53.392;-6.248;2022-09-02T07:43:22;15.82;;;4.40;;
43706;SDS011;61348;53.392;-6.248;2022-09-02T07:45:49;11.55;;;4.35;;
43706;SDS011;61348;53.392;-6.248;2022-09-02T07:48:17;14.63;;;4.18;;
43706;SDS011;61348;53.392;-6.248;2022-09-02T07:50:44;10.20;;;5.43;;
43706;SDS011;61348;53.392;-6.248;2022-09-02T07:53:13;8.00;;;4.15;;
43706;SDS011;61348;53.392;-6.248;2022-09-02T07:55:44;8.73;;;3.75;;
43706;SDS011;61348;53.392;-6.248;2022-09-02T07:58:11;15.25;;;4.72;;
43706;SDS011;61348;53.392;-6.248;2022-09-02T08:00:41;13.15;;;4.50;;
43706;SDS011;61348;53.392;-6.248;2022-09-02T08:03:09;11.90;;;4.40;;
43706;SDS011;61348;53.392;-6.248;2022-09-02T08:05:37;14.73;;;4.47;;
43706;SDS011;61348;53.392;-6.248;2022-09-02T08:08:05;12.82;;;4.25;;
43706;SDS011;61348;53.392;-6.248;2022-09-02T08:10:35;11.60;;;5.40;;
43706;SDS011;61348;53.392;-6.248;2022-09-02T08:13:03;15.10;;;4.70;;
43706;SDS011;61348;53.392;-6.248;2022-09-02T08:15:33;9.95;;;4.38;;
43706;SDS011;61348;53.392;-6.248;2022-09-02T08:18:02;10.25;;;5.32;;
43706;SDS011;61348;53.392;-6.248;2022-09-02T08:23:02;10.05;;;4.47;;
43706;SDS011;61348;53.392;-6.248;2022-09-02T08:28:52;16.45;;;5.20;;
43706;SDS011;61348;53.392;-6.248;2022-09-02T08:31:39;12.27;;;4.68;;
43706;SDS011;61348;53.392;-6.248;2022-09-02T08:34:27;22.83;;;5.00;;
43706;SDS011;61348;53.392;-6.248;2022-09-02T08:41:19;9.60;;;5.43;;
43706;SDS011;61348;53.392;-6.248;2022-09-02T08:44:10;11.02;;;4.50;;
43706;SDS011;61348;53.392;-6.248;2022-09-02T08:47:08;10.32;;;4.38;;
43706;SDS011;61348;53.392;-6.248;2022-09-02T08:50:08;20.02;;;5.35;;
43706;SDS011;61348;53.392;-6.248;2022-09-02T08:53:08;16.05;;;5.68;;
43706;SDS011;61348;53.392;-6.248;2022-09-02T08:55:58;16.25;;;5.05;;
43706;SDS011;61348;53.392;-6.248;2022-09-02T08:58:50;13.52;;;5.07;;
43706;SDS011;61348;53.392;-6.248;2022-09-02T09:01:49;9.52;;;3.75;;
43706;SDS011;61348;53.392;-6.248;2022-09-02T09:21:51;7.53;;;3.20;;
43706;SDS011;61348;53.392;-6.248;2022-09-02T09:24:42;9.57;;;3.50;;
43706;SDS011;61348;53.392;-6.248;2022-09-02T09:31:32;5.50;;;3.10;;
43706;SDS011;61348;53.392;-6.248;2022-09-02T09:40:41;7.82;;;2.47;;
43706;SDS011;61348;53.392;-6.248;2022-09-02T09:43:28;11.02;;;2.92;;
43706;SDS011;61348;53.392;-6.248;2022-09-02T09:46:25;7.07;;;2.70;;
43706;SDS011;61348;53.392;-6.248;2022-09-02T09:53:31;8.00;;;2.85;;
43706;SDS011;61348;53.392;-6.248;2022-09-02T09:56:22;8.30;;;2.70;;
43706;SDS011;61348;53.392;-6.248;2022-09-02T09:59:29;5.93;;;2.40;;
43706;SDS011;61348;53.392;-6.248;2022-09-02T10:02:25;7.75;;;2.60;;
43706;SDS011;61348;53.392;-6.248;2022-09-02T10:05:29;15.60;;;3.03;;
43706;SDS011;61348;53.392;-6.248;2022-09-02T10:08:26;5.07;;;2.20;;
43706;SDS011;61348;53.392;-6.248;2022-09-02T10:14:11;7.20;;;3.03;;
43706;SDS011;61348;53.392;-6.248;2022-09-02T10:30:19;9.80;;;2.47;;
43706;SDS011;61348;53.392;-6.248;2022-09-02T10:41:42;7.30;;;2.10;;
43706;SDS011;61348;53.392;-6.248;2022-09-02T10:44:26;7.90;;;2.38;;
43706;SDS011;61348;53.392;-6.248;2022-09-02T10:47:35;9.63;;;3.13;;
43706;SDS011;61348;53.392;-6.248;2022-09-02T11:00:55;8.23;;;3.40;;
43706;SDS011;61348;53.392;-6.248;2022-09-02T11:03:25;5.55;;;1.88;;
43706;SDS011;61348;53.392;-6.248;2022-09-02T11:06:46;7.22;;;2.22;;
43706;SDS011;61348;53.392;-6.248;2022-09-02T11:16:26;3.88;;;1.67;;
43706;SDS011;61348;53.392;-6.248;2022-09-02T11:25:56;5.18;;;1.60;;
43706;SDS011;61348;53.392;-6.248;2022-09-02T11:39:25;5.63;;;2.65;;
43706;SDS011;61348;53.392;-6.248;2022-09-02T11:50:06;5.60;;;3.90;;
43706;SDS011;61348;53.392;-6.248;2022-09-02T11:56:27;10.43;;;4.30;;
43706;SDS011;61348;53.392;-6.248;2022-09-02T12:03:32;15.60;;;4.30;;
43706;SDS011;61348;53.392;-6.248;2022-09-02T12:06:22;5.97;;;2.78;;
43706;SDS011;61348;53.392;-6.248;2022-09-02T12:15:17;10.35;;;3.38;;
43706;SDS011;61348;53.392;-6.248;2022-09-02T12:30:14;9.30;;;3.85;;
43706;SDS011;61348;53.392;-6.248;2022-09-02T12:36:45;8.55;;;4.78;;
43706;SDS011;61348;53.392;-6.248;2022-09-02T12:47:22;10.98;;;3.95;;
43706;SDS011;61348;53.392;-6.248;2022-09-02T13:33:01;10.13;;;3.90;;
43706;SDS011;61348;53.392;-6.248;2022-09-02T13:35:33;7.68;;;3.35;;
43706;SDS011;61348;53.392;-6.248;2022-09-02T13:38:08;7.13;;;3.92;;
43706;SDS011;61348;53.392;-6.248;2022-09-02T13:40:38;8.80;;;3.30;;
43706;SDS011;61348;53.392;-6.248;2022-09-02T13:49:44;10.50;;;3.15;;
43706;SDS011;61348;53.392;-6.248;2022-09-02T13:52:16;7.32;;;4.10;;
43706;SDS011;61348;53.392;-6.248;2022-09-02T13:54:48;3.70;;;2.63;;
43706;SDS011;61348;53.392;-6.248;2022-09-02T13:57:24;10.63;;;3.67;;
43706;SDS011;61348;53.392;-6.248;2022-09-02T13:59:55;13.20;;;4.18;;
43706;SDS011;61348;53.392;-6.248;2022-09-02T14:02:24;14.75;;;5.43;;
43706;SDS011;61348;53.392;-6.248;2022-09-02T14:08:44;12.02;;;4.45;;
43706;SDS011;61348;53.392;-6.248;2022-09-02T14:11:13;9.32;;;4.70;;
43706;SDS011;61348;53.392;-6.248;2022-09-02T14:13:44;7.85;;;4.38;;
43706;SDS011;61348;53.392;-6.248;2022-09-02T14:21:43;10.93;;;5.82;;
43706;SDS011;61348;53.392;-6.248;2022-09-02T14:24:19;14.75;;;6.22;;
43706;SDS011;61348;53.392;-6.248;2022-09-02T14:26:53;13.32;;;7.40;;
43706;SDS011;61348;53.392;-6.248;2022-09-02T14:29:43;10.73;;;6.15;;
43706;SDS011;61348;53.392;-6.248;2022-09-02T14:32:31;9.07;;;5.90;;
43706;SDS011;61348;53.392;-6.248;2022-09-02T14:35:20;11.13;;;5.90;;
43706;SDS011;61348;53.392;-6.248;2022-09-02T14:42:22;9.02;;;5.32;;
43706;SDS011;61348;53.392;-6.248;2022-09-02T14:45:23;14.43;;;5.93;;
43706;SDS011;61348;53.392;-6.248;2022-09-02T14:48:22;12.35;;;6.15;;
43706;SDS011;61348;53.392;-6.248;2022-09-02T14:51:11;15.27;;;8.50;;
43706;SDS011;61348;53.392;-6.248;2022-09-02T15:06:21;25.15;;;10.07;;
43706;SDS011;61348;53.392;-6.248;2022-09-02T15:13:24;13.38;;;7.35;;
43706;SDS011;61348;53.392;-6.248;2022-09-02T15:16:15;16.60;;;7.13;;
43706;SDS011;61348;53.392;-6.248;2022-09-02T15:19:02;15.90;;;8.20;;
43706;SDS011;61348;53.392;-6.248;2022-09-02T15:29:51;11.57;;;6.82;;
43706;SDS011;61348;53.392;-6.248;2022-09-02T15:32:18;11.88;;;5.75;;
43706;SDS011;61348;53.392;-6.248;2022-09-02T15:34:45;14.55;;;7.03;;
43706;SDS011;61348;53.392;-6.248;2022-09-02T15:37:12;12.77;;;5.63;;
43706;SDS011;61348;53.392;-6.248;2022-09-02T15:43:19;8.40;;;5.90;;
43706;SDS011;61348;53.392;-6.248;2022-09-02T15:58:10;18.70;;;5.93;;
43706;SDS011;61348;53.392;-6.248;2022-09-02T16:00:37;15.07;;;5.25;;
43706;SDS011;61348;53.392;-6.248;2022-09-02T16:03:10;10.75;;;5.32;;
43706;SDS011;61348;53.392;-6.248;2022-09-02T16:09:59;14.05;;;5.90;;
43706;SDS011;61348;53.392;-6.248;2022-09-02T16:12:49;12.55;;;5.45;;
43706;SDS011;61348;53.392;-6.248;2022-09-02T16:15:36;15.93;;;5.28;;
43706;SDS011;61348;53.392;-6.248;2022-09-02T16:22:34;10.15;;;5.70;;
43706;SDS011;61348;53.392;-6.248;2022-09-02T16:29:03;8.57;;;4.85;;
43706;SDS011;61348;53.392;-6.248;2022-09-02T16:31:56;9.68;;;5.00;;
43706;SDS011;61348;53.392;-6.248;2022-09-02T16:35:00;11.35;;;4.25;;
43706;SDS011;61348;53.392;-6.248;2022-09-02T16:37:47;8.05;;;5.07;;
43706;SDS011;61348;53.392;-6.248;2022-09-02T16:44:07;14.70;;;5.07;;
43706;SDS011;61348;53.392;-6.248;2022-09-02T16:49:32;10.82;;;4.50;;
43706;SDS011;61348;53.392;-6.248;2022-09-02T16:52:20;6.80;;;3.80;;
43706;SDS011;61348;53.392;-6.248;2022-09-02T16:58:29;7.97;;;3.90;;
43706;SDS011;61348;53.392;-6.248;2022-09-02T17:00:56;8.45;;;2.80;;
43706;SDS011;61348;53.392;-6.248;2022-09-02T17:03:24;6.95;;;3.42;;
43706;SDS011;61348;53.392;-6.248;2022-09-02T17:08:55;8.43;;;3.40;;
43706;SDS011;61348;53.392;-6.248;2022-09-02T17:11:23;8.20;;;3.38;;
43706;SDS011;61348;53.392;-6.248;2022-09-02T17:13:52;8.98;;;3.40;;
43706;SDS011;61348;53.392;-6.248;2022-09-02T17:16:22;3.80;;;3.35;;
43706;SDS011;61348;53.392;-6.248;2022-09-02T17:18:51;10.18;;;3.88;;
43706;SDS011;61348;53.392;-6.248;2022-09-02T17:21:28;10.98;;;4.00;;
43706;SDS011;61348;53.392;-6.248;2022-09-02T17:24:04;11.07;;;3.33;;
43706;SDS011;61348;53.392;-6.248;2022-09-02T17:26:33;8.38;;;3.03;;
43706;SDS011;61348;53.392;-6.248;2022-09-02T17:29:06;7.25;;;3.65;;
43706;SDS011;61348;53.392;-6.248;2022-09-02T17:31:51;4.90;;;2.95;;
43706;SDS011;61348;53.392;-6.248;2022-09-02T17:34:18;7.28;;;3.38;;
43706;SDS011;61348;53.392;-6.248;2022-09-02T17:36:44;9.13;;;3.22;;
43706;SDS011;61348;53.392;-6.248;2022-09-02T17:39:12;5.97;;;3.20;;
43706;SDS011;61348;53.392;-6.248;2022-09-02T17:41:41;8.07;;;2.58;;
43706;SDS011;61348;53.392;-6.248;2022-09-02T17:47:57;3.92;;;2.28;;
43706;SDS011;61348;53.392;-6.248;2022-09-02T17:50:44;4.07;;;2.80;;
43706;SDS011;61348;53.392;-6.248;2022-09-02T17:53:11;5.07;;;2.10;;
43706;SDS011;61348;53.392;-6.248;2022-09-02T17:55:38;10.25;;;2.47;;
43706;SDS011;61348;53.392;-6.248;2022-09-02T17:58:07;6.22;;;2.10;;
43706;SDS011;61348;53.392;-6.248;2022-09-02T18:01:14;7.05;;;3.20;;
43706;SDS011;61348;53.392;-6.248;2022-09-02T18:27:38;5.40;;;2.05;;
43706;SDS011;61348;53.392;-6.248;2022-09-02T18:30:14;7.95;;;2.60;;
43706;SDS011;61348;53.392;-6.248;2022-09-02T18:48:21;4.00;;;1.63;;
43706;SDS011;61348;53.392;-6.248;2022-09-02T18:55:22;5.43;;;2.20;;
43706;SDS011;61348;53.392;-6.248;2022-09-02T19:05:59;8.80;;;2.38;;
43706;SDS011;61348;53.392;-6.248;2022-09-02T19:08:46;6.60;;;2.38;;
43706;SDS011;61348;53.392;-6.248;2022-09-02T19:11:41;2.92;;;1.70;;
43706;SDS011;61348;53.392;-6.248;2022-09-02T19:14:28;4.43;;;2.72;;
43706;SDS011;61348;53.392;-6.248;2022-09-02T19:20:22;7.07;;;2.10;;
43706;SDS011;61348;53.392;-6.248;2022-09-02T19:22:50;6.95;;;2.92;;
43706;SDS011;61348;53.392;-6.248;2022-09-02T19:25:20;5.40;;;2.45;;
43706;SDS011;61348;53.392;-6.248;2022-09-02T19:27:50;12.63;;;2.70;;
43706;SDS011;61348;53.392;-6.248;2022-09-02T19:35:43;6.90;;;2.47;;
43706;SDS011;61348;53.392;-6.248;2022-09-02T19:38:12;6.23;;;2.40;;
43706;SDS011;61348;53.392;-6.248;2022-09-02T19:46:51;7.30;;;2.10;;
43706;SDS011;61348;53.392;-6.248;2022-09-02T19:49:38;8.13;;;2.67;;
43706;SDS011;61348;53.392;-6.248;2022-09-02T19:54:50;8.27;;;2.78;;
43706;SDS011;61348;53.392;-6.248;2022-09-02T19:57:37;8.73;;;2.72;;
43706;SDS011;61348;53.392;-6.248;2022-09-02T20:00:05;5.03;;;2.60;;
43706;SDS011;61348;53.392;-6.248;2022-09-02T20:05:49;10.82;;;3.70;;
43706;SDS011;61348;53.392;-6.248;2022-09-02T20:11:11;6.55;;;2.85;;
43706;SDS011;61348;53.392;-6.248;2022-09-02T20:13:38;6.40;;;3.20;;
43706;SDS011;61348;53.392;-6.248;2022-09-02T20:19:58;7.60;;;3.50;;
43706;SDS011;61348;53.392;-6.248;2022-09-02T20:22:27;6.03;;;3.40;;
43706;SDS011;61348;53.392;-6.248;2022-09-02T20:55:51;9.93;;;4.45;;
43706;SDS011;61348;53.392;-6.248;2022-09-02T20:58:40;9.80;;;4.82;;
43706;SDS011;61348;53.392;-6.248;2022-09-02T21:01:11;10.63;;;5.07;;
43706;SDS011;61348;53.392;-6.248;2022-09-02T21:03:50;7.93;;;3.97;;
43706;SDS011;61348;53.392;-6.248;2022-09-02T21:06:32;12.43;;;4.53;;
43706;SDS011;61348;53.392;-6.248;2022-09-02T21:09:21;16.50;;;5.35;;
43706;SDS011;61348;53.392;-6.248;2022-09-02T21:12:02;6.57;;;4.22;;
43706;SDS011;61348;53.392;-6.248;2022-09-02T21:15:21;6.95;;;3.85;;
43706;SDS011;61348;53.392;-6.248;2022-09-02T21:30:14;9.50;;;4.28;;
43706;SDS011;61348;53.392;-6.248;2022-09-02T21:35:47;8.05;;;4.32;;
43706;SDS011;61348;53.392;-6.248;2022-09-02T21:38:39;6.85;;;4.28;;
43706;SDS011;61348;53.392;-6.248;2022-09-02T22:15:48;19.92;;;10.10;;
43706;SDS011;61348;53.392;-6.248;2022-09-02T22:22:21;16.70;;;8.48;;
43706;SDS011;61348;53.392;-6.248;2022-09-02T22:28:39;23.52;;;10.60;;
43706;SDS011;61348;53.392;-6.248;2022-09-02T22:31:13;21.30;;;9.10;;
43706;SDS011;61348;53.392;-6.248;2022-09-02T22:33:45;21.50;;;11.02;;
43706;SDS011;61348;53.392;-6.248;2022-09-02T22:40:02;25.65;;;11.95;;
43706;SDS011;61348;53.392;-6.248;2022-09-02T22:42:34;24.60;;;11.70;;
43706;SDS011;61348;53.392;-6.248;2022-09-02T22:45:11;21.80;;;11.50;;
43706;SDS011;61348;53.392;-6.248;2022-09-02T22:48:10;14.57;;;9.35;;
43706;SDS011;61348;53.392;-6.248;2022-09-02T22:51:05;15.35;;;8.35;;
43706;SDS011;61348;53.392;-6.248;2022-09-02T22:53:55;15.48;;;7.70;;
43706;SDS011;61348;53.392;-6.248;2022-09-02T22:57:09;11.35;;;5.50;;
43706;SDS011;61348;53.392;-6.248;2022-09-02T22:59:15;10.45;;;5.45;;
43706;SDS011;61348;53.392;-6.248;2022-09-02T23:02:30;11.93;;;4.57;;
43706;SDS011;61348;53.392;-6.248;2022-09-02T23:05:05;10.75;;;5.60;;
43706;SDS011;61348;53.392;-6.248;2022-09-02T23:08:07;9.48;;;5.72;;
43706;SDS011;61348;53.392;-6.248;2022-09-02T23:10:37;14.38;;;7.28;;
43706;SDS011;61348;53.392;-6.248;2022-09-02T23:23:36;17.80;;;11.45;;
43706;SDS011;61348;53.392;-6.248;2022-09-02T23:37:16;13.60;;;8.13;;
43706;SDS011;61348;53.392;-6.248;2022-09-02T23:40:20;18.10;;;9.98;;
43706;SDS011;61348;53.392;-6.248;2022-09-02T23:43:21;17.30;;;8.70;;
43706;SDS011;61348;53.392;-6.248;2022-09-02T23:49:05;15.65;;;9.02;;
